Wilson Maas — 8PSZ — position and weather

sailwx.info

Track history (hours):
 
Tides and Currents Weather Stations Pressure Air Temp Water Temp Dewpoint Dewpoint Depression Visibility Wind Speed Wind Dir Waves Ship Positions

Wilson Maas

Last reported at 2016-Aug-28 01:33 UTC. Time now 2016-Aug-28 02:16 UTC.
Position N 52°25' E 004°49'.

Length 78 m; draft 3.1 m.

Type: Cargo ship. MMSI: 314217000.

Date/timePositionNaut miles runAvg speedWind from/ knotsBaromVisibWave heightAir tempDewpointWater temp
2016-Aug-28 01:33N 52°25' E 004°49'0 0.0
2016-Aug-28 00:33N 52°25' E 004°49'0 0.0
2016-Aug-27 23:34N 52°25' E 004°49'0 0.0
2016-Aug-27 22:33N 52°25' E 004°49'0 0.0
2016-Aug-27 21:33N 52°25' E 004°49'0 0.0
2016-Aug-27 20:30N 52°25' E 004°49'0 0.0
2016-Aug-27 19:33N 52°25' E 004°49'0 0.0
2016-Aug-27 18:33N 52°25' E 004°49'0 0.0
2016-Aug-27 17:31N 52°25' E 004°49'0 0.0
2016-Aug-27 16:31N 52°25' E 004°49'0 0.0
2016-Aug-27 15:34N 52°25' E 004°49'0 0.3
2016-Aug-27 14:33N 52°25' E 004°49'0 0.0
2016-Aug-27 13:33N 52°25' E 004°49'0 0.0
2016-Aug-27 12:33N 52°25' E 004°49'0 0.0
2016-Aug-27 11:33N 52°25' E 004°49'0 0.0
2016-Aug-27 10:33N 52°25' E 004°49'0 0.0
2016-Aug-27 09:33N 52°25' E 004°49'0 0.0
2016-Aug-27 08:33N 52°25' E 004°49'0 0.0
2016-Aug-27 07:33N 52°25' E 004°49'0 0.0
2016-Aug-27 06:33N 52°25' E 004°49'0 0.0
2016-Aug-27 04:33N 52°25' E 004°49'0 0.0
2016-Aug-27 03:33N 52°25' E 004°49'0 0.0
2016-Aug-27 02:33N 52°25' E 004°49'0 0.0
2016-Aug-27 01:33N 52°25' E 004°49'0 0.2
2016-Aug-27 00:34N 52°25' E 004°49'8 8.3
2016-Aug-26 23:33N 52°28' E 004°36'4 4.3
2016-Aug-26 22:33N 52°28' E 004°29'8 7.9
2016-Aug-26 21:33N 52°29' E 004°16'1110.9
2016-Aug-26 20:33N 52°27' E 003°59'1110.6
2016-Aug-26 19:34N 52°18' E 003°52'1111.3
2016-Aug-26 18:33N 52°06' E 003°56'1010.2
2016-Aug-26 17:33N 51°59' E 004°07'1010.0
2016-Aug-26 16:34N 51°53' E 004°20'8 7.9
2016-Aug-26 15:33N 51°50' E 004°31'8 8.1
2016-Aug-26 14:33N 51°42' E 004°37'1 0.1
2016-Aug-26 00:12N 51°42' E 004°35'5 7.3
2016-Aug-25 23:28N 51°47' E 004°38'7 7.5
2016-Aug-25 22:34N 51°50' E 004°28'8 8.1
2016-Aug-25 21:31N 51°54' E 004°16'9 9.9
2016-Aug-25 20:33N 51°59' E 004°03'9 9.4
2016-Aug-25 19:33N 52°04' E 003°50'29 9.4
2016-Aug-25 16:26N 52°33' E 003°53'57 9.6
2016-Aug-25 10:28N 53°25' E 004°33'8 8.8
2016-Aug-25 09:32N 53°33' E 004°36'23 9.7
2016-Aug-25 07:09N 53°55' E 004°50'610.4
2016-Aug-25 06:33N 54°00' E 004°54'40 9.9
2016-Aug-25 02:33N 54°39' E 005°05'30 9.8
2016-Aug-24 23:26N 55°10' E 005°10'9 9.8
2016-Aug-24 22:34N 55°18' E 005°11'102 9.3
2016-Aug-24 11:33N 56°60' E 005°28'9 8.8
2016-Aug-24 10:33N 57°08' E 005°25'9 8.8
2016-Aug-24 09:33N 57°17' E 005°22'85 9.5
2016-Aug-24 00:33N 58°41' E 004°56'20 8.9
2016-Aug-23 22:18N 59°01' E 004°50'52 9.1
2016-Aug-23 16:33N 59°48' E 005°35'1110.7
2016-Aug-23 15:32N 59°57' E 005°47'  
2016-Aug-20 08:26N 59°56' E 005°47'910.2
2016-Aug-20 07:33N 59°49' E 005°36'  
Track history (hours):
 
Tides and Currents Weather Stations Pressure Air Temp Water Temp Dewpoint Dewpoint Depression Visibility Wind Speed Wind Dir Waves Ship Positions

Wilson Maas

Last reported at 2016-Aug-28 01:33 UTC. Time now 2016-Aug-28 02:16 UTC.
Position N 52°25' E 004°49'.

Length 78 m; draft 3.1 m.

Type: Cargo ship. MMSI: 314217000.

Date/timePositionNaut miles runAvg speedWind from/ knotsBaromVisibWave heightAir tempDewpointWater temp
2016-Aug-28 01:33N 52°25' E 004°49'0 0.0
2016-Aug-28 00:33N 52°25' E 004°49'0 0.0
2016-Aug-27 23:34N 52°25' E 004°49'0 0.0
2016-Aug-27 22:33N 52°25' E 004°49'0 0.0
2016-Aug-27 21:33N 52°25' E 004°49'0 0.0
2016-Aug-27 20:30N 52°25' E 004°49'0 0.0
2016-Aug-27 19:33N 52°25' E 004°49'0 0.0
2016-Aug-27 18:33N 52°25' E 004°49'0 0.0
2016-Aug-27 17:31N 52°25' E 004°49'0 0.0
2016-Aug-27 16:31N 52°25' E 004°49'0 0.0
2016-Aug-27 15:34N 52°25' E 004°49'0 0.3
2016-Aug-27 14:33N 52°25' E 004°49'0 0.0
2016-Aug-27 13:33N 52°25' E 004°49'0 0.0
2016-Aug-27 12:33N 52°25' E 004°49'0 0.0
2016-Aug-27 11:33N 52°25' E 004°49'0 0.0
2016-Aug-27 10:33N 52°25' E 004°49'0 0.0
2016-Aug-27 09:33N 52°25' E 004°49'0 0.0
2016-Aug-27 08:33N 52°25' E 004°49'0 0.0
2016-Aug-27 07:33N 52°25' E 004°49'0 0.0
2016-Aug-27 06:33N 52°25' E 004°49'0 0.0
2016-Aug-27 04:33N 52°25' E 004°49'0 0.0
2016-Aug-27 03:33N 52°25' E 004°49'0 0.0
2016-Aug-27 02:33N 52°25' E 004°49'0 0.0
2016-Aug-27 01:33N 52°25' E 004°49'0 0.2
2016-Aug-27 00:34N 52°25' E 004°49'8 8.3
2016-Aug-26 23:33N 52°28' E 004°36'4 4.3
2016-Aug-26 22:33N 52°28' E 004°29'8 7.9
2016-Aug-26 21:33N 52°29' E 004°16'1110.9
2016-Aug-26 20:33N 52°27' E 003°59'1110.6
2016-Aug-26 19:34N 52°18' E 003°52'1111.3
2016-Aug-26 18:33N 52°06' E 003°56'1010.2
2016-Aug-26 17:33N 51°59' E 004°07'1010.0
2016-Aug-26 16:34N 51°53' E 004°20'8 7.9
2016-Aug-26 15:33N 51°50' E 004°31'8 8.1
2016-Aug-26 14:33N 51°42' E 004°37'1 0.1
2016-Aug-26 00:12N 51°42' E 004°35'5 7.3
2016-Aug-25 23:28N 51°47' E 004°38'7 7.5
2016-Aug-25 22:34N 51°50' E 004°28'8 8.1
2016-Aug-25 21:31N 51°54' E 004°16'9 9.9
2016-Aug-25 20:33N 51°59' E 004°03'9 9.4
2016-Aug-25 19:33N 52°04' E 003°50'29 9.4
2016-Aug-25 16:26N 52°33' E 003°53'57 9.6
2016-Aug-25 10:28N 53°25' E 004°33'8 8.8
2016-Aug-25 09:32N 53°33' E 004°36'23 9.7
2016-Aug-25 07:09N 53°55' E 004°50'610.4
2016-Aug-25 06:33N 54°00' E 004°54'40 9.9
2016-Aug-25 02:33N 54°39' E 005°05'30 9.8
2016-Aug-24 23:26N 55°10' E 005°10'9 9.8
2016-Aug-24 22:34N 55°18' E 005°11'102 9.3
2016-Aug-24 11:33N 56°60' E 005°28'9 8.8
2016-Aug-24 10:33N 57°08' E 005°25'9 8.8
2016-Aug-24 09:33N 57°17' E 005°22'85 9.5
2016-Aug-24 00:33N 58°41' E 004°56'20 8.9
2016-Aug-23 22:18N 59°01' E 004°50'52 9.1
2016-Aug-23 16:33N 59°48' E 005°35'1110.7
2016-Aug-23 15:32N 59°57' E 005°47'  
2016-Aug-20 08:26N 59°56' E 005°47'910.2
2016-Aug-20 07:33N 59°49' E 005°36'  

Dump ship's entire track history